sensor_id;sensor_type;location;lat;lon;timestamp;temperature;humidity
7784;DHT22;19359;51.402;6.778;2023-02-01T00:04:13;6.00;1.00
7784;DHT22;19359;51.402;6.778;2023-02-01T00:06:40;5.90;1.00
7784;DHT22;19359;51.402;6.778;2023-02-01T00:09:06;5.60;1.00
7784;DHT22;19359;51.402;6.778;2023-02-01T00:11:33;5.80;1.00
7784;DHT22;19359;51.402;6.778;2023-02-01T00:14:02;5.90;1.00
7784;DHT22;19359;51.402;6.778;2023-02-01T00:16:30;5.70;1.00
7784;DHT22;19359;51.402;6.778;2023-02-01T00:18:59;5.60;1.00
7784;DHT22;19359;51.402;6.778;2023-02-01T00:21:26;5.90;1.00
7784;DHT22;19359;51.402;6.778;2023-02-01T00:23:53;5.90;1.00
7784;DHT22;19359;51.402;6.778;2023-02-01T00:26:25;5.90;1.00
7784;DHT22;19359;51.402;6.778;2023-02-01T00:28:53;5.80;1.00
7784;DHT22;19359;51.402;6.778;2023-02-01T00:31:21;6.50;1.00
7784;DHT22;19359;51.402;6.778;2023-02-01T00:33:48;6.00;1.00
7784;DHT22;19359;51.402;6.778;2023-02-01T00:36:15;6.20;1.00
7784;DHT22;19359;51.402;6.778;2023-02-01T00:38:42;5.90;1.00
7784;DHT22;19359;51.402;6.778;2023-02-01T00:41:11;6.30;1.00
7784;DHT22;19359;51.402;6.778;2023-02-01T00:43:39;6.10;1.00
7784;DHT22;19359;51.402;6.778;2023-02-01T00:46:06;6.20;1.00
7784;DHT22;19359;51.402;6.778;2023-02-01T00:48:34;6.20;1.00
7784;DHT22;19359;51.402;6.778;2023-02-01T00:51:01;6.00;1.00
7784;DHT22;19359;51.402;6.778;2023-02-01T00:53:28;6.00;1.00
7784;DHT22;19359;51.402;6.778;2023-02-01T00:55:55;5.90;1.00
7784;DHT22;19359;51.402;6.778;2023-02-01T00:58:22;5.80;1.00
7784;DHT22;19359;51.402;6.778;2023-02-01T01:01:00;6.10;1.00
7784;DHT22;19359;51.402;6.778;2023-02-01T01:03:27;6.00;1.00
7784;DHT22;19359;51.402;6.778;2023-02-01T01:06:00;6.20;1.00
7784;DHT22;19359;51.402;6.778;2023-02-01T01:08:27;6.10;1.00
7784;DHT22;19359;51.402;6.778;2023-02-01T01:10:54;6.10;1.00
7784;DHT22;19359;51.402;6.778;2023-02-01T01:13:21;6.10;1.00
7784;DHT22;19359;51.402;6.778;2023-02-01T01:15:48;6.10;1.00
7784;DHT22;19359;51.402;6.778;2023-02-01T01:18:15;6.30;1.00
7784;DHT22;19359;51.402;6.778;2023-02-01T01:20:42;6.00;1.00
7784;DHT22;19359;51.402;6.778;2023-02-01T01:23:10;6.00;1.00
7784;DHT22;19359;51.402;6.778;2023-02-01T01:25:37;6.00;1.00
7784;DHT22;19359;51.402;6.778;2023-02-01T01:28:04;6.00;1.00
7784;DHT22;19359;51.402;6.778;2023-02-01T01:30:31;6.20;1.00
7784;DHT22;19359;51.402;6.778;2023-02-01T01:32:58;5.90;1.00
7784;DHT22;19359;51.402;6.778;2023-02-01T01:37:51;6.20;1.00
7784;DHT22;19359;51.402;6.778;2023-02-01T01:40:20;6.20;1.00
7784;DHT22;19359;51.402;6.778;2023-02-01T01:42:46;6.10;1.00
7784;DHT22;19359;51.402;6.778;2023-02-01T01:45:22;6.10;1.00
7784;DHT22;19359;51.402;6.778;2023-02-01T01:47:53;6.00;1.00
7784;DHT22;19359;51.402;6.778;2023-02-01T01:50:24;6.00;1.00
7784;DHT22;19359;51.402;6.778;2023-02-01T01:52:52;6.10;1.00
7784;DHT22;19359;51.402;6.778;2023-02-01T01:55:25;6.10;1.00
7784;DHT22;19359;51.402;6.778;2023-02-01T01:57:55;6.00;1.00
7784;DHT22;19359;51.402;6.778;2023-02-01T02:00:24;6.00;1.00
7784;DHT22;19359;51.402;6.778;2023-02-01T02:02:54;5.90;1.00
7784;DHT22;19359;51.402;6.778;2023-02-01T02:05:22;6.00;1.00
7784;DHT22;19359;51.402;6.778;2023-02-01T02:07:51;6.00;1.00
7784;DHT22;19359;51.402;6.778;2023-02-01T02:10:19;5.90;1.00
7784;DHT22;19359;51.402;6.778;2023-02-01T02:13:08;6.00;1.00
7784;DHT22;19359;51.402;6.778;2023-02-01T02:15:36;5.80;1.00
7784;DHT22;19359;51.402;6.778;2023-02-01T02:18:10;5.80;1.00
7784;DHT22;19359;51.402;6.778;2023-02-01T02:21:10;5.90;1.00
7784;DHT22;19359;51.402;6.778;2023-02-01T02:24:09;5.80;1.00
7784;DHT22;19359;51.402;6.778;2023-02-01T02:27:00;5.70;1.00
7784;DHT22;19359;51.402;6.778;2023-02-01T02:29:54;5.70;1.00
7784;DHT22;19359;51.402;6.778;2023-02-01T02:32:52;5.70;1.00
7784;DHT22;19359;51.402;6.778;2023-02-01T02:35:29;5.60;1.00
7784;DHT22;19359;51.402;6.778;2023-02-01T02:38:09;5.60;1.00
7784;DHT22;19359;51.402;6.778;2023-02-01T02:40:45;5.50;1.00
7784;DHT22;19359;51.402;6.778;2023-02-01T02:43:20;5.50;1.00
7784;DHT22;19359;51.402;6.778;2023-02-01T02:46:11;5.90;1.00
7784;DHT22;19359;51.402;6.778;2023-02-01T02:49:00;5.50;1.00
7784;DHT22;19359;51.402;6.778;2023-02-01T02:51:37;5.50;1.00
7784;DHT22;19359;51.402;6.778;2023-02-01T02:54:25;5.50;1.00
7784;DHT22;19359;51.402;6.778;2023-02-01T02:57:14;5.00;1.00
7784;DHT22;19359;51.402;6.778;2023-02-01T03:00:02;5.30;1.00
7784;DHT22;19359;51.402;6.778;2023-02-01T03:02:48;5.50;1.00
7784;DHT22;19359;51.402;6.778;2023-02-01T03:05:33;5.30;1.00
7784;DHT22;19359;51.402;6.778;2023-02-01T03:08:10;5.40;1.00
7784;DHT22;19359;51.402;6.778;2023-02-01T03:10:50;5.40;1.00
7784;DHT22;19359;51.402;6.778;2023-02-01T03:13:26;5.40;1.00
7784;DHT22;19359;51.402;6.778;2023-02-01T03:16:00;5.30;1.00
7784;DHT22;19359;51.402;6.778;2023-02-01T03:18:33;5.30;1.00
7784;DHT22;19359;51.402;6.778;2023-02-01T03:21:06;5.60;1.00
7784;DHT22;19359;51.402;6.778;2023-02-01T03:23:36;5.40;1.00
7784;DHT22;19359;51.402;6.778;2023-02-01T03:26:07;5.50;1.00
7784;DHT22;19359;51.402;6.778;2023-02-01T03:28:37;5.50;1.00
7784;DHT22;19359;51.402;6.778;2023-02-01T03:31:07;5.60;1.00
7784;DHT22;19359;51.402;6.778;2023-02-01T03:33:34;5.20;1.00
7784;DHT22;19359;51.402;6.778;2023-02-01T03:36:06;5.60;1.00
7784;DHT22;19359;51.402;6.778;2023-02-01T03:38:40;5.60;1.00
7784;DHT22;19359;51.402;6.778;2023-02-01T03:41:12;5.70;1.00
7784;DHT22;19359;51.402;6.778;2023-02-01T03:43:48;5.70;1.00
7784;DHT22;19359;51.402;6.778;2023-02-01T03:46:21;5.70;1.00
7784;DHT22;19359;51.402;6.778;2023-02-01T03:48:51;5.70;1.00
7784;DHT22;19359;51.402;6.778;2023-02-01T03:51:19;5.70;1.00
7784;DHT22;19359;51.402;6.778;2023-02-01T03:53:49;5.60;1.00
7784;DHT22;19359;51.402;6.778;2023-02-01T03:56:17;5.70;1.00
7784;DHT22;19359;51.402;6.778;2023-02-01T03:58:45;5.80;1.00
7784;DHT22;19359;51.402;6.778;2023-02-01T04:01:24;5.70;1.00
7784;DHT22;19359;51.402;6.778;2023-02-01T04:03:51;5.60;1.00
7784;DHT22;19359;51.402;6.778;2023-02-01T04:06:17;5.60;1.00
7784;DHT22;19359;51.402;6.778;2023-02-01T04:08:44;5.40;1.00
7784;DHT22;19359;51.402;6.778;2023-02-01T04:11:12;5.60;1.00
7784;DHT22;19359;51.402;6.778;2023-02-01T04:13:39;5.60;1.00
7784;DHT22;19359;51.402;6.778;2023-02-01T04:16:06;5.50;1.00
7784;DHT22;19359;51.402;6.778;2023-02-01T04:18:33;5.70;1.00
7784;DHT22;19359;51.402;6.778;2023-02-01T04:21:00;5.50;1.00
7784;DHT22;19359;51.402;6.778;2023-02-01T04:25:58;5.20;1.00
7784;DHT22;19359;51.402;6.778;2023-02-01T04:28:27;5.40;1.00
7784;DHT22;19359;51.402;6.778;2023-02-01T04:30:54;5.50;1.00
7784;DHT22;19359;51.402;6.778;2023-02-01T04:33:20;5.50;1.00
7784;DHT22;19359;51.402;6.778;2023-02-01T04:35:47;5.30;1.00
7784;DHT22;19359;51.402;6.778;2023-02-01T04:38:14;6.80;1.00
7784;DHT22;19359;51.402;6.778;2023-02-01T04:40:41;5.50;1.00
7784;DHT22;19359;51.402;6.778;2023-02-01T04:43:07;5.50;1.00
7784;DHT22;19359;51.402;6.778;2023-02-01T04:45:35;5.60;1.00
7784;DHT22;19359;51.402;6.778;2023-02-01T04:48:02;5.20;1.00
7784;DHT22;19359;51.402;6.778;2023-02-01T04:50:29;5.40;1.00
7784;DHT22;19359;51.402;6.778;2023-02-01T04:52:56;5.50;1.00
7784;DHT22;19359;51.402;6.778;2023-02-01T04:55:23;5.50;1.00
7784;DHT22;19359;51.402;6.778;2023-02-01T04:57:49;6.50;1.00
7784;DHT22;19359;51.402;6.778;2023-02-01T05:00:17;5.40;1.00
7784;DHT22;19359;51.402;6.778;2023-02-01T05:02:45;5.50;1.00
7784;DHT22;19359;51.402;6.778;2023-02-01T05:05:12;5.50;1.00
7784;DHT22;19359;51.402;6.778;2023-02-01T05:07:38;5.40;1.00
7784;DHT22;19359;51.402;6.778;2023-02-01T05:10:06;5.30;1.00
7784;DHT22;19359;51.402;6.778;2023-02-01T05:12:33;5.40;1.00
7784;DHT22;19359;51.402;6.778;2023-02-01T05:17:45;5.40;1.00
7784;DHT22;19359;51.402;6.778;2023-02-01T05:20:12;5.30;1.00
7784;DHT22;19359;51.402;6.778;2023-02-01T05:22:39;5.30;1.00
7784;DHT22;19359;51.402;6.778;2023-02-01T05:25:07;5.10;1.00
7784;DHT22;19359;51.402;6.778;2023-02-01T05:27:34;5.40;1.00
7784;DHT22;19359;51.402;6.778;2023-02-01T05:30:01;5.50;1.00
7784;DHT22;19359;51.402;6.778;2023-02-01T05:32:27;5.20;1.00
7784;DHT22;19359;51.402;6.778;2023-02-01T05:34:56;5.20;1.00
7784;DHT22;19359;51.402;6.778;2023-02-01T05:37:23;5.20;1.00
7784;DHT22;19359;51.402;6.778;2023-02-01T05:39:49;5.00;1.00
7784;DHT22;19359;51.402;6.778;2023-02-01T05:42:16;5.20;1.00
7784;DHT22;19359;51.402;6.778;2023-02-01T05:44:43;5.10;1.00
7784;DHT22;19359;51.402;6.778;2023-02-01T05:47:10;5.10;1.00
7784;DHT22;19359;51.402;6.778;2023-02-01T05:49:37;5.10;1.00
7784;DHT22;19359;51.402;6.778;2023-02-01T05:52:06;5.20;1.00
7784;DHT22;19359;51.402;6.778;2023-02-01T05:54:32;5.10;1.00
7784;DHT22;19359;51.402;6.778;2023-02-01T06:01:53;5.00;1.00
7784;DHT22;19359;51.402;6.778;2023-02-01T06:04:20;5.10;1.00
7784;DHT22;19359;51.402;6.778;2023-02-01T06:06:47;5.00;1.00
7784;DHT22;19359;51.402;6.778;2023-02-01T06:09:17;5.10;1.00
7784;DHT22;19359;51.402;6.778;2023-02-01T06:11:44;5.10;1.00
7784;DHT22;19359;51.402;6.778;2023-02-01T06:14:10;5.20;1.00
7784;DHT22;19359;51.402;6.778;2023-02-01T06:16:37;5.20;1.00
7784;DHT22;19359;51.402;6.778;2023-02-01T06:19:04;5.30;1.00
7784;DHT22;19359;51.402;6.778;2023-02-01T06:21:31;5.30;1.00
7784;DHT22;19359;51.402;6.778;2023-02-01T06:23:58;5.30;1.00
7784;DHT22;19359;51.402;6.778;2023-02-01T06:26:26;5.30;1.00
7784;DHT22;19359;51.402;6.778;2023-02-01T06:28:54;5.40;1.00
7784;DHT22;19359;51.402;6.778;2023-02-01T06:31:21;5.50;1.00
7784;DHT22;19359;51.402;6.778;2023-02-01T06:33:49;5.60;1.00
7784;DHT22;19359;51.402;6.778;2023-02-01T06:36:15;5.50;1.00
7784;DHT22;19359;51.402;6.778;2023-02-01T06:38:44;5.50;1.00
7784;DHT22;19359;51.402;6.778;2023-02-01T06:41:10;5.50;1.00
7784;DHT22;19359;51.402;6.778;2023-02-01T06:43:39;5.40;1.00
7784;DHT22;19359;51.402;6.778;2023-02-01T06:46:08;5.60;1.00
7784;DHT22;19359;51.402;6.778;2023-02-01T06:48:36;5.90;1.00
7784;DHT22;19359;51.402;6.778;2023-02-01T06:51:03;5.70;1.00
7784;DHT22;19359;51.402;6.778;2023-02-01T06:53:30;5.60;1.00
7784;DHT22;19359;51.402;6.778;2023-02-01T06:55:58;5.60;1.00
7784;DHT22;19359;51.402;6.778;2023-02-01T06:58:28;5.70;1.00
7784;DHT22;19359;51.402;6.778;2023-02-01T07:00:56;5.70;1.00
7784;DHT22;19359;51.402;6.778;2023-02-01T07:03:23;5.60;1.00
7784;DHT22;19359;51.402;6.778;2023-02-01T07:05:53;5.90;1.00
7784;DHT22;19359;51.402;6.778;2023-02-01T07:08:21;5.70;1.00
7784;DHT22;19359;51.402;6.778;2023-02-01T07:10:47;5.70;1.00
7784;DHT22;19359;51.402;6.778;2023-02-01T07:13:14;5.80;1.00
7784;DHT22;19359;51.402;6.778;2023-02-01T07:15:41;5.90;1.00
7784;DHT22;19359;51.402;6.778;2023-02-01T07:18:09;5.80;1.00
7784;DHT22;19359;51.402;6.778;2023-02-01T07:23:02;5.90;1.00
7784;DHT22;19359;51.402;6.778;2023-02-01T07:25:29;5.90;1.00
7784;DHT22;19359;51.402;6.778;2023-02-01T07:27:56;5.80;1.00
7784;DHT22;19359;51.402;6.778;2023-02-01T07:30:23;6.00;1.00
7784;DHT22;19359;51.402;6.778;2023-02-01T07:32:51;5.80;1.00
7784;DHT22;19359;51.402;6.778;2023-02-01T07:35:19;5.80;1.00
7784;DHT22;19359;51.402;6.778;2023-02-01T07:37:46;6.10;1.00
7784;DHT22;19359;51.402;6.778;2023-02-01T07:40:13;5.90;1.00
7784;DHT22;19359;51.402;6.778;2023-02-01T07:42:39;6.10;1.00
7784;DHT22;19359;51.402;6.778;2023-02-01T07:45:07;5.90;1.00
7784;DHT22;19359;51.402;6.778;2023-02-01T07:47:34;6.00;1.00
7784;DHT22;19359;51.402;6.778;2023-02-01T07:50:00;6.10;1.00
7784;DHT22;19359;51.402;6.778;2023-02-01T07:52:29;6.00;1.00
7784;DHT22;19359;51.402;6.778;2023-02-01T07:54:56;6.10;1.00
7784;DHT22;19359;51.402;6.778;2023-02-01T07:57:22;6.20;1.00
7784;DHT22;19359;51.402;6.778;2023-02-01T07:59:49;5.90;1.00
7784;DHT22;19359;51.402;6.778;2023-02-01T08:02:33;6.10;1.00
7784;DHT22;19359;51.402;6.778;2023-02-01T08:05:00;6.30;1.00
7784;DHT22;19359;51.402;6.778;2023-02-01T08:07:26;6.10;1.00
7784;DHT22;19359;51.402;6.778;2023-02-01T08:09:54;5.70;1.00
7784;DHT22;19359;51.402;6.778;2023-02-01T08:12:21;6.10;1.00
7784;DHT22;19359;51.402;6.778;2023-02-01T08:14:48;6.20;1.00
7784;DHT22;19359;51.402;6.778;2023-02-01T08:17:14;6.60;1.00
7784;DHT22;19359;51.402;6.778;2023-02-01T08:19:41;6.50;1.00
7784;DHT22;19359;51.402;6.778;2023-02-01T08:22:08;6.10;1.00
7784;DHT22;19359;51.402;6.778;2023-02-01T08:24:35;6.10;1.00
7784;DHT22;19359;51.402;6.778;2023-02-01T08:27:06;6.20;1.00
7784;DHT22;19359;51.402;6.778;2023-02-01T08:29:32;5.80;1.00
7784;DHT22;19359;51.402;6.778;2023-02-01T08:31:59;6.00;1.00
7784;DHT22;19359;51.402;6.778;2023-02-01T08:34:26;6.10;1.00
7784;DHT22;19359;51.402;6.778;2023-02-01T08:36:53;6.10;1.00
7784;DHT22;19359;51.402;6.778;2023-02-01T08:39:23;6.20;1.00
7784;DHT22;19359;51.402;6.778;2023-02-01T08:41:50;6.20;1.00
7784;DHT22;19359;51.402;6.778;2023-02-01T08:44:32;6.20;1.00
7784;DHT22;19359;51.402;6.778;2023-02-01T08:46:59;6.20;1.00
7784;DHT22;19359;51.402;6.778;2023-02-01T08:49:26;6.20;1.00
7784;DHT22;19359;51.402;6.778;2023-02-01T08:51:53;6.20;1.00
7784;DHT22;19359;51.402;6.778;2023-02-01T08:54:20;6.20;1.00
7784;DHT22;19359;51.402;6.778;2023-02-01T08:56:47;6.20;1.00
7784;DHT22;19359;51.402;6.778;2023-02-01T08:59:14;6.10;1.00
7784;DHT22;19359;51.402;6.778;2023-02-01T09:01:42;6.20;1.00
7784;DHT22;19359;51.402;6.778;2023-02-01T09:04:09;6.20;1.00
7784;DHT22;19359;51.402;6.778;2023-02-01T09:06:36;6.30;1.00
7784;DHT22;19359;51.402;6.778;2023-02-01T09:09:02;6.30;1.00
7784;DHT22;19359;51.402;6.778;2023-02-01T09:11:29;6.30;1.00
7784;DHT22;19359;51.402;6.778;2023-02-01T09:13:56;6.20;1.00
7784;DHT22;19359;51.402;6.778;2023-02-01T09:16:23;6.20;1.00
7784;DHT22;19359;51.402;6.778;2023-02-01T09:18:51;6.20;1.00
7784;DHT22;19359;51.402;6.778;2023-02-01T09:21:18;6.20;1.00
7784;DHT22;19359;51.402;6.778;2023-02-01T09:23:44;6.20;1.00
7784;DHT22;19359;51.402;6.778;2023-02-01T09:26:14;6.20;1.00
7784;DHT22;19359;51.402;6.778;2023-02-01T09:28:41;6.20;1.00
7784;DHT22;19359;51.402;6.778;2023-02-01T09:31:08;6.30;1.00
7784;DHT22;19359;51.402;6.778;2023-02-01T09:33:35;6.40;1.00
7784;DHT22;19359;51.402;6.778;2023-02-01T09:36:04;6.40;1.00
7784;DHT22;19359;51.402;6.778;2023-02-01T09:38:31;6.40;1.00
7784;DHT22;19359;51.402;6.778;2023-02-01T09:40:59;6.40;1.00
7784;DHT22;19359;51.402;6.778;2023-02-01T09:43:37;6.50;1.00
7784;DHT22;19359;51.402;6.778;2023-02-01T09:46:18;6.30;1.00
7784;DHT22;19359;51.402;6.778;2023-02-01T09:48:48;6.70;1.00
7784;DHT22;19359;51.402;6.778;2023-02-01T09:51:21;6.80;1.00
7784;DHT22;19359;51.402;6.778;2023-02-01T09:53:56;7.00;1.00
7784;DHT22;19359;51.402;6.778;2023-02-01T09:56:29;6.60;1.00
7784;DHT22;19359;51.402;6.778;2023-02-01T09:59:08;6.50;1.00
7784;DHT22;19359;51.402;6.778;2023-02-01T10:01:36;6.60;1.00
7784;DHT22;19359;51.402;6.778;2023-02-01T10:04:06;6.70;1.00
7784;DHT22;19359;51.402;6.778;2023-02-01T10:06:57;6.70;1.00
7784;DHT22;19359;51.402;6.778;2023-02-01T10:09:49;6.70;1.00
7784;DHT22;19359;51.402;6.778;2023-02-01T10:12:31;6.70;1.00
7784;DHT22;19359;51.402;6.778;2023-02-01T10:15:09;6.60;1.00
7784;DHT22;19359;51.402;6.778;2023-02-01T10:17:51;6.80;1.00
7784;DHT22;19359;51.402;6.778;2023-02-01T10:20:24;7.10;1.00
7784;DHT22;19359;51.402;6.778;2023-02-01T10:23:02;7.00;1.00
7784;DHT22;19359;51.402;6.778;2023-02-01T10:25:36;7.00;1.00
7784;DHT22;19359;51.402;6.778;2023-02-01T10:28:04;7.20;1.00
7784;DHT22;19359;51.402;6.778;2023-02-01T10:30:39;7.10;1.00
7784;DHT22;19359;51.402;6.778;2023-02-01T10:33:14;7.10;1.00
7784;DHT22;19359;51.402;6.778;2023-02-01T10:35:44;7.10;1.00
7784;DHT22;19359;51.402;6.778;2023-02-01T10:38:19;7.00;1.00
7784;DHT22;19359;51.402;6.778;2023-02-01T10:40:51;7.10;1.00
7784;DHT22;19359;51.402;6.778;2023-02-01T10:43:18;7.00;1.00
7784;DHT22;19359;51.402;6.778;2023-02-01T10:45:46;7.40;1.00
7784;DHT22;19359;51.402;6.778;2023-02-01T10:48:13;7.00;1.00
7784;DHT22;19359;51.402;6.778;2023-02-01T10:50:46;6.90;1.00
7784;DHT22;19359;51.402;6.778;2023-02-01T10:53:20;7.00;1.00
7784;DHT22;19359;51.402;6.778;2023-02-01T10:55:49;7.00;1.00
7784;DHT22;19359;51.402;6.778;2023-02-01T10:58:18;7.20;1.00
7784;DHT22;19359;51.402;6.778;2023-02-01T11:00:48;7.10;1.00
7784;DHT22;19359;51.402;6.778;2023-02-01T11:03:27;7.10;1.00
7784;DHT22;19359;51.402;6.778;2023-02-01T11:05:57;6.90;1.00
7784;DHT22;19359;51.402;6.778;2023-02-01T11:08:25;7.20;1.00
7784;DHT22;19359;51.402;6.778;2023-02-01T11:10:58;7.30;1.00
7784;DHT22;19359;51.402;6.778;2023-02-01T11:13:28;7.50;1.00
7784;DHT22;19359;51.402;6.778;2023-02-01T11:15:57;7.50;1.00
7784;DHT22;19359;51.402;6.778;2023-02-01T11:18:26;7.50;1.00
7784;DHT22;19359;51.402;6.778;2023-02-01T11:20:54;7.50;1.00
7784;DHT22;19359;51.402;6.778;2023-02-01T11:23:24;7.50;1.00
7784;DHT22;19359;51.402;6.778;2023-02-01T11:25:54;7.40;1.00
7784;DHT22;19359;51.402;6.778;2023-02-01T11:28:24;7.40;1.00
7784;DHT22;19359;51.402;6.778;2023-02-01T11:30:55;7.30;1.00
7784;DHT22;19359;51.402;6.778;2023-02-01T11:33:25;7.80;1.00
7784;DHT22;19359;51.402;6.778;2023-02-01T11:35:55;7.20;1.00
7784;DHT22;19359;51.402;6.778;2023-02-01T11:38:28;7.30;1.00
7784;DHT22;19359;51.402;6.778;2023-02-01T11:40:57;7.50;1.00
7784;DHT22;19359;51.402;6.778;2023-02-01T11:43:37;6.40;1.00
7784;DHT22;19359;51.402;6.778;2023-02-01T11:46:17;7.50;1.00
7784;DHT22;19359;51.402;6.778;2023-02-01T11:48:47;7.40;1.00
7784;DHT22;19359;51.402;6.778;2023-02-01T11:51:28;7.20;1.00
7784;DHT22;19359;51.402;6.778;2023-02-01T11:54:08;7.30;1.00
7784;DHT22;19359;51.402;6.778;2023-02-01T11:56:44;7.20;1.00
7784;DHT22;19359;51.402;6.778;2023-02-01T11:59:23;6.90;1.00
7784;DHT22;19359;51.402;6.778;2023-02-01T12:02:08;7.00;1.00
7784;DHT22;19359;51.402;6.778;2023-02-01T12:04:59;7.10;1.00
7784;DHT22;19359;51.402;6.778;2023-02-01T12:07:45;7.10;1.00
7784;DHT22;19359;51.402;6.778;2023-02-01T12:10:25;7.10;1.00
7784;DHT22;19359;51.402;6.778;2023-02-01T12:13:03;7.10;1.00
7784;DHT22;19359;51.402;6.778;2023-02-01T12:15:45;7.00;1.00
7784;DHT22;19359;51.402;6.778;2023-02-01T12:18:30;8.80;1.00
7784;DHT22;19359;51.402;6.778;2023-02-01T12:21:09;7.40;1.00
7784;DHT22;19359;51.402;6.778;2023-02-01T12:23:51;7.30;1.00
7784;DHT22;19359;51.402;6.778;2023-02-01T12:26:38;7.20;1.00
7784;DHT22;19359;51.402;6.778;2023-02-01T12:29:25;7.30;1.00
7784;DHT22;19359;51.402;6.778;2023-02-01T12:32:16;7.30;1.00
7784;DHT22;19359;51.402;6.778;2023-02-01T12:34:57;7.40;1.00
7784;DHT22;19359;51.402;6.778;2023-02-01T12:37:38;7.30;1.00
7784;DHT22;19359;51.402;6.778;2023-02-01T12:40:32;7.50;1.00
7784;DHT22;19359;51.402;6.778;2023-02-01T12:43:07;7.70;1.00
7784;DHT22;19359;51.402;6.778;2023-02-01T12:45:39;7.40;1.00
7784;DHT22;19359;51.402;6.778;2023-02-01T12:48:22;7.40;1.00
7784;DHT22;19359;51.402;6.778;2023-02-01T12:50:53;7.40;1.00
7784;DHT22;19359;51.402;6.778;2023-02-01T12:53:25;7.50;1.00
7784;DHT22;19359;51.402;6.778;2023-02-01T12:55:55;7.50;1.00
7784;DHT22;19359;51.402;6.778;2023-02-01T12:58:27;7.40;1.00
7784;DHT22;19359;51.402;6.778;2023-02-01T13:00:59;7.60;1.00
7784;DHT22;19359;51.402;6.778;2023-02-01T13:03:35;7.50;1.00
7784;DHT22;19359;51.402;6.778;2023-02-01T13:06:06;7.60;1.00
7784;DHT22;19359;51.402;6.778;2023-02-01T13:08:41;7.70;1.00
7784;DHT22;19359;51.402;6.778;2023-02-01T13:11:13;7.70;1.00
7784;DHT22;19359;51.402;6.778;2023-02-01T13:13:55;7.70;1.00
7784;DHT22;19359;51.402;6.778;2023-02-01T13:16:27;7.40;1.00
7784;DHT22;19359;51.402;6.778;2023-02-01T13:19:02;8.10;1.00
7784;DHT22;19359;51.402;6.778;2023-02-01T13:21:33;7.40;1.00
7784;DHT22;19359;51.402;6.778;2023-02-01T13:24:01;7.50;1.00
7784;DHT22;19359;51.402;6.778;2023-02-01T13:26:28;7.60;1.00
7784;DHT22;19359;51.402;6.778;2023-02-01T13:28:59;7.60;1.00
7784;DHT22;19359;51.402;6.778;2023-02-01T13:34:52;7.70;1.00
7784;DHT22;19359;51.402;6.778;2023-02-01T13:37:30;7.70;1.00
7784;DHT22;19359;51.402;6.778;2023-02-01T13:42:49;7.90;1.00
7784;DHT22;19359;51.402;6.778;2023-02-01T13:45:20;7.60;1.00
7784;DHT22;19359;51.402;6.778;2023-02-01T13:47:50;7.50;1.00
7784;DHT22;19359;51.402;6.778;2023-02-01T13:50:23;7.90;1.00
7784;DHT22;19359;51.402;6.778;2023-02-01T13:52:54;7.80;1.00
7784;DHT22;19359;51.402;6.778;2023-02-01T13:55:31;7.90;1.00
7784;DHT22;19359;51.402;6.778;2023-02-01T13:58:13;8.00;1.00
7784;DHT22;19359;51.402;6.778;2023-02-01T14:00:43;7.90;1.00
7784;DHT22;19359;51.402;6.778;2023-02-01T14:03:18;8.00;1.00
7784;DHT22;19359;51.402;6.778;2023-02-01T14:05:57;8.10;1.00
7784;DHT22;19359;51.402;6.778;2023-02-01T14:08:39;8.10;1.00
7784;DHT22;19359;51.402;6.778;2023-02-01T14:11:06;8.10;1.00
7784;DHT22;19359;51.402;6.778;2023-02-01T14:13:34;8.10;1.00
7784;DHT22;19359;51.402;6.778;2023-02-01T14:16:13;8.10;1.00
7784;DHT22;19359;51.402;6.778;2023-02-01T14:19:00;8.10;1.00
7784;DHT22;19359;51.402;6.778;2023-02-01T14:21:29;8.00;1.00
7784;DHT22;19359;51.402;6.778;2023-02-01T14:23:59;8.00;1.00
7784;DHT22;19359;51.402;6.778;2023-02-01T14:26:41;8.60;1.00
7784;DHT22;19359;51.402;6.778;2023-02-01T14:29:25;8.60;1.00
7784;DHT22;19359;51.402;6.778;2023-02-01T14:32:00;8.10;1.00
7784;DHT22;19359;51.402;6.778;2023-02-01T14:34:48;8.00;1.00
7784;DHT22;19359;51.402;6.778;2023-02-01T14:37:25;8.10;1.00
7784;DHT22;19359;51.402;6.778;2023-02-01T14:39:56;8.30;1.00
7784;DHT22;19359;51.402;6.778;2023-02-01T14:42:28;8.20;1.00
7784;DHT22;19359;51.402;6.778;2023-02-01T14:51:02;8.20;1.00
7784;DHT22;19359;51.402;6.778;2023-02-01T14:53:33;8.10;1.00
7784;DHT22;19359;51.402;6.778;2023-02-01T14:56:06;7.90;1.00
7784;DHT22;19359;51.402;6.778;2023-02-01T14:58:40;8.10;1.00
7784;DHT22;19359;51.402;6.778;2023-02-01T15:01:17;8.10;1.00
7784;DHT22;19359;51.402;6.778;2023-02-01T15:03:50;8.20;1.00
7784;DHT22;19359;51.402;6.778;2023-02-01T15:06:30;8.10;1.00
7784;DHT22;19359;51.402;6.778;2023-02-01T15:09:00;8.10;1.00
7784;DHT22;19359;51.402;6.778;2023-02-01T15:11:28;8.10;1.00
7784;DHT22;19359;51.402;6.778;2023-02-01T15:13:55;8.50;1.00
7784;DHT22;19359;51.402;6.778;2023-02-01T15:16:23;8.10;1.00
7784;DHT22;19359;51.402;6.778;2023-02-01T15:19:06;8.30;1.00
7784;DHT22;19359;51.402;6.778;2023-02-01T15:21:42;8.20;1.00
7784;DHT22;19359;51.402;6.778;2023-02-01T15:24:11;8.10;1.00
7784;DHT22;19359;51.402;6.778;2023-02-01T15:26:38;8.20;1.00
7784;DHT22;19359;51.402;6.778;2023-02-01T15:29:05;8.20;1.00
7784;DHT22;19359;51.402;6.778;2023-02-01T15:31:34;8.00;1.00
7784;DHT22;19359;51.402;6.778;2023-02-01T15:34:01;8.10;1.00
7784;DHT22;19359;51.402;6.778;2023-02-01T15:36:28;7.90;1.00
7784;DHT22;19359;51.402;6.778;2023-02-01T15:39:20;8.00;1.00
7784;DHT22;19359;51.402;6.778;2023-02-01T15:41:53;8.00;1.00
7784;DHT22;19359;51.402;6.778;2023-02-01T15:44:28;8.10;1.00
7784;DHT22;19359;51.402;6.778;2023-02-01T15:46:55;8.10;1.00
7784;DHT22;19359;51.402;6.778;2023-02-01T15:49:26;8.00;1.00
7784;DHT22;19359;51.402;6.778;2023-02-01T15:51:54;8.00;1.00
7784;DHT22;19359;51.402;6.778;2023-02-01T15:54:26;7.90;1.00
7784;DHT22;19359;51.402;6.778;2023-02-01T15:56:57;8.00;1.00
7784;DHT22;19359;51.402;6.778;2023-02-01T15:59:29;8.00;1.00
7784;DHT22;19359;51.402;6.778;2023-02-01T16:01:57;7.90;1.00
7784;DHT22;19359;51.402;6.778;2023-02-01T16:04:25;7.70;1.00
7784;DHT22;19359;51.402;6.778;2023-02-01T16:06:56;7.90;1.00
7784;DHT22;19359;51.402;6.778;2023-02-01T16:09:35;8.10;1.00
7784;DHT22;19359;51.402;6.778;2023-02-01T16:12:04;7.80;1.00
7784;DHT22;19359;51.402;6.778;2023-02-01T16:14:46;8.00;1.00
7784;DHT22;19359;51.402;6.778;2023-02-01T16:17:12;8.00;1.00
7784;DHT22;19359;51.402;6.778;2023-02-01T16:19:39;7.90;1.00
7784;DHT22;19359;51.402;6.778;2023-02-01T16:22:06;8.00;1.00
7784;DHT22;19359;51.402;6.778;2023-02-01T16:24:34;8.20;1.00
7784;DHT22;19359;51.402;6.778;2023-02-01T16:27:00;7.90;1.00
7784;DHT22;19359;51.402;6.778;2023-02-01T16:29:28;7.90;1.00
7784;DHT22;19359;51.402;6.778;2023-02-01T16:31:55;7.90;1.00
7784;DHT22;19359;51.402;6.778;2023-02-01T16:34:21;7.90;1.00
7784;DHT22;19359;51.402;6.778;2023-02-01T16:36:49;8.00;1.00
7784;DHT22;19359;51.402;6.778;2023-02-01T16:39:18;7.90;1.00
7784;DHT22;19359;51.402;6.778;2023-02-01T16:41:46;7.90;1.00
7784;DHT22;19359;51.402;6.778;2023-02-01T16:44:13;7.90;1.00
7784;DHT22;19359;51.402;6.778;2023-02-01T16:46:42;7.90;1.00
7784;DHT22;19359;51.402;6.778;2023-02-01T16:49:17;7.70;1.00
7784;DHT22;19359;51.402;6.778;2023-02-01T16:51:45;7.80;1.00
7784;DHT22;19359;51.402;6.778;2023-02-01T16:54:12;7.80;1.00
7784;DHT22;19359;51.402;6.778;2023-02-01T16:56:40;7.90;1.00
7784;DHT22;19359;51.402;6.778;2023-02-01T16:59:09;7.90;1.00
7784;DHT22;19359;51.402;6.778;2023-02-01T17:01:35;8.00;1.00
7784;DHT22;19359;51.402;6.778;2023-02-01T17:04:03;8.00;1.00
7784;DHT22;19359;51.402;6.778;2023-02-01T17:06:30;8.00;1.00
7784;DHT22;19359;51.402;6.778;2023-02-01T17:08:58;7.90;1.00
7784;DHT22;19359;51.402;6.778;2023-02-01T17:11:27;7.80;1.00
7784;DHT22;19359;51.402;6.778;2023-02-01T17:13:56;7.90;1.00